Time;durP1;ratioP1;P1;durP2;ratioP2;P2;SDS_P1;SDS_P2;PMS_P1;PMS_P2;Temp;Humidity;BMP_temperature;BMP_pressure;BME280_temperature;BME280_humidity;BME280_pressure;Samples;Min_cycle;Max_cycle;Signal;HPM_P1;HPM_P2
2022/05/09 00:01:40;;;;;;;13.75;3.90;;;11.30;99.90;;;;;;5032070;28;20033;-75
2022/05/09 00:04:05;;;;;;;10.10;3.45;;;11.30;99.90;;;;;;5030457;28;20405;-74
2022/05/09 00:06:31;;;;;;;8.43;2.55;;;11.30;99.90;;;;;;5019008;28;20025;-74
2022/05/09 00:08:57;;;;;;;7.05;2.75;;;11.30;99.90;;;;;;5011786;28;20041;-75
2022/05/09 00:11:23;;;;;;;7.90;2.50;;;11.30;99.90;;;;;;5012815;28;20048;-71
2022/05/09 00:13:48;;;;;;;7.78;2.33;;;11.30;99.60;;;;;;5035801;28;20932;-70
2022/05/09 00:16:14;;;;;;;6.63;2.45;;;11.30;99.10;;;;;;5011929;28;20057;-70
2022/05/09 00:18:40;;;;;;;6.60;2.28;;;11.30;98.80;;;;;;5016006;28;20109;-71
2022/05/09 00:21:06;;;;;;;5.55;1.92;;;11.30;98.20;;;;;;5031653;28;20079;-71
2022/05/09 00:23:32;;;;;;;7.32;2.45;;;11.30;97.90;;;;;;5013413;28;20033;-71
2022/05/09 00:25:58;;;;;;;5.70;2.33;;;11.30;97.60;;;;;;5034731;28;20047;-70
2022/05/09 00:28:25;;;;;;;4.75;1.77;;;11.30;97.70;;;;;;5001139;28;20060;-70
2022/05/09 00:30:51;;;;;;;6.82;2.33;;;11.30;97.30;;;;;;5034146;28;20028;-71
2022/05/09 00:33:17;;;;;;;5.60;2.03;;;11.30;96.90;;;;;;5013254;28;20099;-71
2022/05/09 00:35:44;;;;;;;5.63;2.20;;;11.30;96.60;;;;;;5012741;28;20079;-71
2022/05/09 00:38:10;;;;;;;5.07;2.10;;;11.30;96.30;;;;;;5034444;28;20489;-71
2022/05/09 00:40:38;;;;;;;6.18;1.80;;;11.30;96.10;;;;;;5015254;28;20047;-70
2022/05/09 00:43:28;;;;;;;4.50;1.73;;;11.20;95.90;;;;;;5034454;28;20056;-74
2022/05/09 00:45:53;;;;;;;7.60;2.03;;;11.20;95.90;;;;;;5033267;28;20094;-74
2022/05/09 00:48:19;;;;;;;6.40;1.83;;;11.20;95.70;;;;;;5033989;28;20038;-75
2022/05/09 00:50:44;;;;;;;5.47;1.98;;;11.20;95.50;;;;;;5028569;28;20112;-74
2022/05/09 00:53:12;;;;;;;8.00;2.50;;;11.20;95.30;;;;;;5016857;28;20416;-74
2022/05/09 00:55:42;;;;;;;8.55;2.42;;;11.20;95.30;;;;;;5030643;28;20033;-74
2022/05/09 00:58:21;;;;;;;8.18;2.00;;;11.20;95.30;;;;;;5013133;28;20512;-75
2022/05/09 01:00:47;;;;;;;4.82;2.10;;;11.20;95.10;;;;;;4997642;28;20421;-75
2022/05/09 01:03:35;;;;;;;5.53;1.70;;;11.20;95.10;;;;;;5032648;28;20049;-74
2022/05/09 01:06:01;;;;;;;7.30;2.22;;;11.10;95.10;;;;;;5016833;28;20083;-71
2022/05/09 01:08:27;;;;;;;6.47;1.75;;;11.10;94.80;;;;;;4998944;28;20108;-70
2022/05/09 01:10:54;;;;;;;6.50;2.10;;;11.10;94.80;;;;;;5011359;28;20128;-71
2022/05/09 01:13:23;;;;;;;6.88;2.03;;;11.10;94.50;;;;;;5013840;28;20037;-71
2022/05/09 01:15:52;;;;;;;10.48;2.20;;;11.00;94.60;;;;;;5030504;28;20029;-71
2022/05/09 01:18:17;;;;;;;5.63;1.88;;;11.00;94.40;;;;;;5035605;28;20034;-71
2022/05/09 01:20:44;;;;;;;10.32;2.20;;;10.90;94.30;;;;;;5017408;28;20032;-71
2022/05/09 01:23:10;;;;;;;5.57;1.73;;;11.00;94.20;;;;;;5030942;28;20063;-71
2022/05/09 01:25:37;;;;;;;5.55;1.95;;;11.00;94.30;;;;;;5036648;28;20022;-70
2022/05/09 01:28:03;;;;;;;4.88;1.52;;;10.90;94.20;;;;;;5019518;28;20037;-69
2022/05/09 01:30:40;;;;;;;5.35;2.03;;;10.90;94.30;;;;;;5036403;28;20036;-71
2022/05/09 01:33:29;;;;;;;6.68;1.90;;;10.90;94.50;;;;;;5034371;28;20060;-71
2022/05/09 01:36:16;;;;;;;7.35;2.25;;;10.90;94.40;;;;;;5036450;28;20044;-71
2022/05/09 01:38:48;;;;;;;5.55;1.88;;;10.90;94.40;;;;;;5037357;28;20029;-71
2022/05/09 01:41:14;;;;;;;7.38;1.98;;;10.90;94.40;;;;;;5018632;28;20106;-71
2022/05/09 01:43:48;;;;;;;8.82;2.47;;;10.90;94.40;;;;;;5037253;28;20523;-71
2022/05/09 01:46:21;;;;;;;9.30;2.50;;;10.90;94.50;;;;;;5018763;28;20036;-70
2022/05/09 01:51:32;;;;;;;6.18;2.10;;;10.90;94.60;;;;;;5037503;28;20045;-71
2022/05/09 01:53:58;;;;;;;7.13;1.90;;;10.80;94.70;;;;;;5030389;28;20501;-71
2022/05/09 01:56:28;;;;;;;9.60;2.08;;;10.80;94.70;;;;;;5016744;28;20028;-71
2022/05/09 01:58:53;;;;;;;6.93;1.90;;;10.80;94.80;;;;;;5015789;28;20034;-71
2022/05/09 02:01:21;;;;;;;6.15;2.17;;;10.70;95.00;;;;;;5013566;28;20030;-70
2022/05/09 02:03:47;;;;;;;6.25;2.00;;;10.70;95.00;;;;;;5003218;28;20034;-70
2022/05/09 02:06:15;;;;;;;6.97;2.08;;;10.70;95.00;;;;;;5035153;28;20552;-71
2022/05/09 02:08:41;;;;;;;6.60;1.95;;;10.70;95.20;;;;;;5018931;28;20025;-71
2022/05/09 02:11:07;;;;;;;6.95;2.17;;;10.70;95.30;;;;;;5036807;28;20052;-70
2022/05/09 02:13:34;;;;;;;6.85;2.22;;;10.70;95.40;;;;;;5021660;28;20517;-71
2022/05/09 02:16:00;;;;;;;6.05;2.03;;;10.70;95.50;;;;;;5037811;28;20090;-70
2022/05/09 02:18:26;;;;;;;9.70;2.60;;;10.70;95.60;;;;;;5032335;28;20403;-71
2022/05/09 02:20:51;;;;;;;5.15;1.80;;;10.70;95.70;;;;;;5032188;28;20116;-70
2022/05/09 02:23:17;;;;;;;8.75;2.53;;;10.70;95.70;;;;;;5035423;28;20040;-69
2022/05/09 02:25:45;;;;;;;10.25;2.40;;;10.60;95.70;;;;;;5031670;28;20555;-71
2022/05/09 02:28:12;;;;;;;8.98;2.58;;;10.60;95.70;;;;;;5039186;28;20049;-71
2022/05/09 02:30:39;;;;;;;6.13;2.13;;;10.60;95.80;;;;;;5014778;28;20481;-71
2022/05/09 02:33:06;;;;;;;7.65;2.28;;;10.60;95.80;;;;;;5036409;28;20025;-70
2022/05/09 02:35:33;;;;;;;9.02;2.30;;;10.50;95.90;;;;;;5034835;28;20033;-70
2022/05/09 02:37:59;;;;;;;5.90;2.33;;;10.50;96.00;;;;;;5036402;28;20039;-70
2022/05/09 02:40:25;;;;;;;8.15;1.92;;;10.50;96.10;;;;;;5013979;28;20018;-70
2022/05/09 02:42:52;;;;;;;6.63;2.92;;;10.40;96.10;;;;;;5034968;28;20041;-70
2022/05/09 02:45:18;;;;;;;6.55;2.25;;;10.50;96.30;;;;;;5036506;28;20091;-70
2022/05/09 02:47:44;;;;;;;7.10;2.50;;;10.40;96.30;;;;;;5018650;28;20102;-70
2022/05/09 02:50:10;;;;;;;4.93;2.08;;;10.40;96.30;;;;;;5035968;28;20544;-71
2022/05/09 02:52:37;;;;;;;10.65;2.75;;;10.40;96.40;;;;;;5014617;28;20049;-71
2022/05/09 02:55:08;;;;;;;13.15;2.80;;;10.40;96.60;;;;;;5016427;28;20120;-70
2022/05/09 02:57:34;;;;;;;6.82;2.00;;;10.40;96.50;;;;;;5014920;28;20028;-71
2022/05/09 03:00:00;;;;;;;9.13;2.00;;;10.30;96.60;;;;;;5027311;28;20079;-71
2022/05/09 03:02:27;;;;;;;11.27;2.85;;;10.30;96.60;;;;;;5018487;28;20036;-71
2022/05/09 03:04:53;;;;;;;6.43;2.08;;;10.30;96.70;;;;;;5016241;28;20133;-71
2022/05/09 03:07:19;;;;;;;5.82;2.35;;;10.30;96.90;;;;;;5018979;28;20112;-70
2022/05/09 03:09:47;;;;;;;5.25;1.92;;;10.30;97.00;;;;;;5016497;28;20371;-71
2022/05/09 03:12:14;;;;;;;11.25;2.53;;;10.30;97.00;;;;;;5017860;28;20037;-71
2022/05/09 03:14:40;;;;;;;8.27;2.45;;;10.20;96.90;;;;;;5034092;28;20601;-71
2022/05/09 03:17:08;;;;;;;8.73;2.53;;;10.20;97.10;;;;;;5037740;28;20104;-71
2022/05/09 03:19:34;;;;;;;9.77;2.88;;;10.20;97.10;;;;;;5013103;28;20037;-71
2022/05/09 03:22:00;;;;;;;6.95;2.55;;;10.20;97.10;;;;;;5033880;28;20029;-71
2022/05/09 03:24:25;;;;;;;9.18;2.70;;;10.10;97.00;;;;;;5017422;28;20039;-71
2022/05/09 03:26:51;;;;;;;6.90;2.95;;;10.10;97.20;;;;;;5020410;28;20017;-71
2022/05/09 03:29:18;;;;;;;8.50;2.67;;;10.20;97.40;;;;;;5034118;28;20068;-70
2022/05/09 03:31:46;;;;;;;7.32;3.13;;;10.10;97.20;;;;;;5029393;28;20028;-71
2022/05/09 03:34:12;;;;;;;9.75;2.47;;;10.10;97.30;;;;;;5032061;28;20032;-71
2022/05/09 03:36:38;;;;;;;7.13;2.72;;;10.10;97.60;;;;;;5033145;28;20037;-71
2022/05/09 03:39:07;;;;;;;7.15;2.42;;;10.10;97.30;;;;;;5015909;28;20021;-69
2022/05/09 03:41:33;;;;;;;9.32;2.78;;;10.00;97.40;;;;;;5018984;28;20036;-72
2022/05/09 03:43:58;;;;;;;8.82;2.30;;;10.00;97.40;;;;;;5036845;28;20025;-70
2022/05/09 03:46:24;;;;;;;5.70;2.78;;;10.00;97.40;;;;;;5016029;28;20025;-71
2022/05/09 03:48:50;;;;;;;4.90;2.60;;;10.00;97.40;;;;;;5035373;28;20558;-71
2022/05/09 03:51:15;;;;;;;9.45;2.70;;;9.90;97.40;;;;;;5017125;28;20037;-70
2022/05/09 03:53:41;;;;;;;9.23;2.60;;;10.00;97.50;;;;;;5012531;28;20034;-70
2022/05/09 03:56:07;;;;;;;7.15;2.90;;;10.00;97.50;;;;;;5014978;28;20428;-70
2022/05/09 03:58:34;;;;;;;7.38;2.50;;;10.00;97.60;;;;;;5017503;28;20037;-71
2022/05/09 04:01:00;;;;;;;9.93;3.13;;;10.00;97.60;;;;;;5035970;28;20080;-71
2022/05/09 04:03:26;;;;;;;5.53;2.45;;;10.10;97.60;;;;;;5014715;28;20560;-70
2022/05/09 04:05:53;;;;;;;6.35;2.30;;;10.00;97.50;;;;;;5033558;28;20025;-71
2022/05/09 04:08:20;;;;;;;6.75;2.22;;;10.00;97.40;;;;;;5031010;28;20559;-71
2022/05/09 04:10:48;;;;;;;9.90;2.75;;;10.00;97.40;;;;;;5017311;28;20061;-71
2022/05/09 04:13:14;;;;;;;8.05;2.78;;;10.10;97.50;;;;;;5013189;28;20037;-70
2022/05/09 04:18:28;;;;;;;7.50;2.75;;;10.00;97.40;;;;;;5029814;28;20033;-70
2022/05/09 04:20:54;;;;;;;8.38;2.85;;;10.00;97.50;;;;;;5015811;28;20033;-71
2022/05/09 04:23:20;;;;;;;7.00;2.25;;;10.00;97.50;;;;;;5032825;28;20551;-70
2022/05/09 04:25:46;;;;;;;6.75;2.67;;;10.10;97.50;;;;;;5031451;28;20029;-70
2022/05/09 04:28:15;;;;;;;11.15;2.88;;;10.10;97.40;;;;;;5029302;28;20128;-70
2022/05/09 04:30:41;;;;;;;10.10;2.60;;;10.20;97.40;;;;;;5024065;28;20029;-70
2022/05/09 04:33:08;;;;;;;7.35;2.60;;;10.20;97.30;;;;;;5016813;28;20104;-71
2022/05/09 04:35:35;;;;;;;8.32;2.50;;;10.20;97.20;;;;;;5005783;28;20068;-70
2022/05/09 04:38:02;;;;;;;8.10;2.97;;;10.30;97.10;;;;;;5031971;28;20052;-70
2022/05/09 04:40:29;;;;;;;9.88;2.88;;;10.30;97.00;;;;;;5033085;28;20063;-70
2022/05/09 04:42:57;;;;;;;8.57;2.60;;;10.30;96.90;;;;;;5033138;28;20032;-71
2022/05/09 04:45:24;;;;;;;7.20;2.35;;;10.40;96.80;;;;;;5013608;28;21429;-70
2022/05/09 04:47:50;;;;;;;11.55;2.92;;;10.40;96.70;;;;;;5016685;28;20036;-70
2022/05/09 04:50:20;;;;;;;10.10;2.78;;;10.50;96.50;;;;;;5031174;28;20056;-71
2022/05/09 04:52:46;;;;;;;5.88;2.67;;;10.50;96.30;;;;;;5030162;28;20531;-70
2022/05/09 04:55:14;;;;;;;7.90;2.85;;;10.60;96.10;;;;;;5007976;28;20041;-69
2022/05/09 04:57:40;;;;;;;7.60;2.28;;;10.60;95.90;;;;;;5013924;28;20404;-71
2022/05/09 05:00:09;;;;;;;9.52;2.47;;;10.70;95.90;;;;;;5028869;28;20053;-70
2022/05/09 05:02:36;;;;;;;6.85;2.53;;;10.70;95.70;;;;;;5027210;28;20025;-71
2022/05/09 05:05:06;;;;;;;7.78;2.30;;;10.70;95.60;;;;;;5010965;28;20033;-70
2022/05/09 05:07:31;;;;;;;10.48;2.22;;;10.80;95.60;;;;;;5032386;28;20523;-74
2022/05/09 05:09:57;;;;;;;5.40;1.98;;;10.80;95.40;;;;;;5028111;28;20025;-74
2022/05/09 05:12:23;;;;;;;6.55;1.95;;;10.80;95.40;;;;;;4992127;28;20021;-75
2022/05/09 05:14:49;;;;;;;6.25;2.60;;;10.90;95.10;;;;;;5035272;28;20029;-75
2022/05/09 05:17:15;;;;;;;8.95;2.70;;;11.00;94.90;;;;;;5013266;28;20030;-76
2022/05/09 05:19:42;;;;;;;11.15;3.10;;;11.00;94.80;;;;;;5031924;28;20044;-74
2022/05/09 05:22:09;;;;;;;8.20;2.45;;;11.10;94.70;;;;;;5011122;28;20376;-74
2022/05/09 05:24:36;;;;;;;8.10;2.53;;;11.10;94.70;;;;;;5012650;28;20033;-74
2022/05/09 05:27:02;;;;;;;6.88;2.63;;;11.20;94.60;;;;;;5027742;28;20048;-73
2022/05/09 05:29:28;;;;;;;8.25;2.38;;;11.20;94.50;;;;;;5029404;28;20056;-74
2022/05/09 05:32:16;;;;;;;7.95;2.92;;;11.30;94.40;;;;;;5010750;28;21066;-74
2022/05/09 05:34:42;;;;;;;10.20;2.25;;;11.30;94.30;;;;;;5011083;28;20029;-75
2022/05/09 05:37:08;;;;;;;7.68;2.38;;;11.40;94.40;;;;;;5016560;28;20029;-73
2022/05/09 05:39:36;;;;;;;11.88;2.97;;;11.40;94.40;;;;;;5037662;28;20084;-72
2022/05/09 05:42:04;;;;;;;10.38;3.03;;;11.50;94.40;;;;;;5028845;28;20039;-72
2022/05/09 05:44:29;;;;;;;10.75;2.47;;;11.50;94.40;;;;;;5011701;28;20033;-72
2022/05/09 05:46:55;;;;;;;9.57;2.78;;;11.60;94.30;;;;;;5035417;28;20022;-76
2022/05/09 05:49:20;;;;;;;9.88;3.20;;;11.60;94.10;;;;;;5036437;28;20033;-76
2022/05/09 05:51:46;;;;;;;6.88;2.10;;;11.70;94.00;;;;;;5018708;28;20104;-76
2022/05/09 05:54:11;;;;;;;4.78;2.03;;;11.70;93.90;;;;;;5029330;28;20041;-71
2022/05/09 05:56:37;;;;;;;9.50;2.67;;;11.80;94.00;;;;;;5033278;28;20029;-70
2022/05/09 05:59:04;;;;;;;9.88;2.60;;;11.80;93.80;;;;;;5029110;28;20044;-70
2022/05/09 06:01:33;;;;;;;14.75;2.58;;;11.80;93.80;;;;;;5012506;28;20021;-71
2022/05/09 06:03:59;;;;;;;6.22;2.08;;;11.90;93.70;;;;;;5038664;28;20055;-71
2022/05/09 06:06:25;;;;;;;11.30;2.42;;;11.90;93.80;;;;;;5018833;28;20111;-67
2022/05/09 06:08:51;;;;;;;12.20;2.63;;;12.00;93.70;;;;;;5017143;28;20167;-66
2022/05/09 06:11:17;;;;;;;9.43;2.25;;;12.00;93.50;;;;;;5035302;28;20519;-66
2022/05/09 06:13:42;;;;;;;8.15;2.88;;;12.10;93.50;;;;;;5019258;28;20039;-69
2022/05/09 06:16:08;;;;;;;12.73;2.88;;;12.20;93.30;;;;;;5037693;28;20059;-68
2022/05/09 06:18:35;;;;;;;12.18;2.95;;;12.20;93.30;;;;;;5017735;28;20051;-75
2022/05/09 06:21:03;;;;;;;8.82;2.50;;;12.20;93.30;;;;;;5015271;28;20485;-75
2022/05/09 06:23:29;;;;;;;9.73;2.58;;;12.30;93.30;;;;;;4988067;28;20402;-74
2022/05/09 06:25:56;;;;;;;8.00;2.13;;;12.40;93.10;;;;;;5012520;28;20022;-72
2022/05/09 06:28:23;;;;;;;8.13;2.20;;;12.50;92.80;;;;;;5017018;28;20060;-73
2022/05/09 06:30:50;;;;;;;9.40;2.60;;;12.50;92.70;;;;;;5018148;28;20040;-72
2022/05/09 06:33:25;;;;;;;10.05;2.55;;;12.50;92.50;;;;;;5039202;28;20033;-74
2022/05/09 06:35:53;;;;;;;10.98;2.63;;;12.60;92.40;;;;;;5035822;28;20025;-73
2022/05/09 06:38:19;;;;;;;12.77;2.60;;;12.60;92.30;;;;;;5038352;28;20165;-72
2022/05/09 06:40:46;;;;;;;6.30;1.88;;;12.60;91.90;;;;;;5036366;28;20083;-73
2022/05/09 06:43:12;;;;;;;8.20;2.35;;;12.70;92.10;;;;;;5038977;28;20057;-73
2022/05/09 06:45:38;;;;;;;9.65;2.17;;;12.70;91.80;;;;;;5037416;28;20394;-73
2022/05/09 06:48:04;;;;;;;11.32;2.97;;;12.80;91.80;;;;;;5016777;28;20033;-74
2022/05/09 06:50:32;;;;;;;8.50;2.92;;;12.80;91.70;;;;;;5033736;28;20397;-74
2022/05/09 06:52:59;;;;;;;18.40;3.35;;;12.80;91.30;;;;;;5017626;28;20036;-75
2022/05/09 06:55:25;;;;;;;9.32;2.80;;;12.90;91.30;;;;;;5022819;28;20029;-76
2022/05/09 06:57:52;;;;;;;10.73;2.70;;;13.00;90.70;;;;;;4998204;28;20140;-76
2022/05/09 07:00:24;;;;;;;7.22;2.63;;;13.00;90.60;;;;;;5016236;28;20265;-77
2022/05/09 07:02:50;;;;;;;9.90;2.45;;;13.00;90.50;;;;;;5036065;28;20031;-76
2022/05/09 07:05:18;;;;;;;7.03;2.22;;;13.10;90.50;;;;;;5017745;28;20066;-76
2022/05/09 07:07:44;;;;;;;7.07;2.13;;;13.10;90.70;;;;;;5020572;28;20040;-76
2022/05/09 07:10:12;;;;;;;7.30;2.30;;;13.20;90.80;;;;;;5035929;28;20343;-76
2022/05/09 07:12:53;;;;;;;12.18;2.80;;;13.20;90.90;;;;;;5020538;28;20924;-72
2022/05/09 07:15:22;;;;;;;8.32;2.78;;;13.30;91.00;;;;;;5034392;28;20074;-72
2022/05/09 07:17:52;;;;;;;9.80;2.70;;;13.30;91.00;;;;;;5028159;28;20029;-70
2022/05/09 07:20:20;;;;;;;10.77;2.65;;;13.40;91.10;;;;;;5034937;28;20167;-71
2022/05/09 07:22:48;;;;;;;8.20;2.80;;;13.40;90.90;;;;;;5018794;28;20026;-71
2022/05/09 07:25:16;;;;;;;11.48;2.97;;;13.40;90.70;;;;;;5031267;28;20033;-71
2022/05/09 07:27:42;;;;;;;8.68;2.80;;;13.50;90.90;;;;;;5014395;28;20186;-71
2022/05/09 07:30:19;;;;;;;11.13;3.40;;;13.50;90.50;;;;;;5013911;28;20500;-71
2022/05/09 07:32:45;;;;;;;7.95;2.72;;;13.60;90.40;;;;;;5005514;28;20146;-71
2022/05/09 07:35:14;;;;;;;12.40;2.80;;;13.60;90.60;;;;;;5015933;28;20030;-76
2022/05/09 07:37:40;;;;;;;12.32;2.92;;;13.70;90.50;;;;;;5015769;28;20040;-75
2022/05/09 07:40:11;;;;;;;11.02;3.03;;;13.70;90.80;;;;;;5006704;28;20408;-76
2022/05/09 07:42:37;;;;;;;10.10;2.88;;;13.70;90.90;;;;;;5031221;28;20021;-72
2022/05/09 07:45:04;;;;;;;8.13;2.67;;;13.80;90.90;;;;;;5013819;28;20504;-71
2022/05/09 07:47:31;;;;;;;7.53;2.50;;;13.90;90.90;;;;;;5033248;28;20029;-73
2022/05/09 07:49:56;;;;;;;16.70;2.92;;;14.00;90.90;;;;;;5008176;28;20501;-76
2022/05/09 07:52:23;;;;;;;8.73;2.30;;;14.00;90.50;;;;;;5033573;28;20053;-71
2022/05/09 07:54:49;;;;;;;10.63;2.60;;;14.10;90.00;;;;;;5035847;28;20090;-76
2022/05/09 07:57:15;;;;;;;16.10;2.75;;;14.10;89.60;;;;;;5031225;28;20029;-76
2022/05/09 07:59:41;;;;;;;12.05;3.00;;;14.10;88.30;;;;;;5013028;28;20033;-72
2022/05/09 08:02:08;;;;;;;10.30;2.95;;;14.10;87.60;;;;;;5025603;28;20059;-75
2022/05/09 08:04:33;;;;;;;10.02;2.22;;;14.10;86.10;;;;;;5026414;28;20116;-75
2022/05/09 08:07:00;;;;;;;6.43;2.63;;;14.20;85.10;;;;;;5030839;28;20608;-71
2022/05/09 08:09:26;;;;;;;11.52;2.28;;;14.20;85.30;;;;;;5014331;28;20026;-77
2022/05/09 08:11:51;;;;;;;8.10;2.33;;;14.30;84.60;;;;;;5016043;28;20660;-75
2022/05/09 08:14:17;;;;;;;12.00;2.50;;;14.30;83.70;;;;;;5010191;28;20056;-71
2022/05/09 08:16:44;;;;;;;10.10;2.65;;;14.40;83.50;;;;;;5004463;28;20044;-72
2022/05/09 08:19:11;;;;;;;9.82;3.22;;;14.40;84.70;;;;;;5010820;28;20033;-70
2022/05/09 08:21:38;;;;;;;7.38;2.45;;;14.40;84.70;;;;;;5012626;28;20069;-75
2022/05/09 08:24:10;;;;;;;8.38;2.95;;;14.50;85.20;;;;;;5030971;28;20032;-77
2022/05/09 08:26:36;;;;;;;15.82;3.10;;;14.50;85.20;;;;;;5014420;28;20147;-71
2022/05/09 08:29:04;;;;;;;12.23;3.03;;;14.60;85.60;;;;;;5031781;28;20546;-75
2022/05/09 08:31:30;;;;;;;8.20;2.53;;;14.60;85.00;;;;;;5031329;28;20069;-71
2022/05/09 08:33:57;;;;;;;17.45;3.55;;;14.70;86.10;;;;;;5028855;28;20063;-70
2022/05/09 08:39:08;;;;;;;12.32;3.35;;;14.80;87.30;;;;;;5025194;28;20067;-72
2022/05/09 08:41:49;;;;;;;9.88;3.08;;;14.90;86.90;;;;;;5014532;28;20091;-71
2022/05/09 08:44:27;;;;;;;12.68;2.58;;;14.90;87.20;;;;;;5033471;28;20043;-73
2022/05/09 08:47:25;;;;;;;8.77;2.40;;;14.90;86.90;;;;;;5035969;28;20029;-74
2022/05/09 08:49:58;;;;;;;11.27;2.67;;;15.20;87.60;;;;;;5013311;28;20033;-70
2022/05/09 08:52:39;;;;;;;9.38;2.80;;;15.20;86.80;;;;;;5017362;28;20033;-75
2022/05/09 08:55:06;;;;;;;11.47;3.37;;;15.20;86.50;;;;;;5015915;28;20037;-75
2022/05/09 08:57:39;;;;;;;10.20;2.33;;;15.30;84.30;;;;;;4998935;28;20287;-71
2022/05/09 09:00:17;;;;;;;7.90;2.33;;;15.30;85.20;;;;;;5016239;28;20029;-75
2022/05/09 09:03:06;;;;;;;8.65;2.78;;;15.40;84.20;;;;;;5036567;28;20041;-75
2022/05/09 09:05:36;;;;;;;9.35;2.95;;;15.40;84.30;;;;;;5002642;28;20120;-75
2022/05/09 09:08:11;;;;;;;18.63;2.80;;;15.50;84.20;;;;;;5014565;28;20111;-75
2022/05/09 09:11:01;;;;;;;10.32;2.92;;;15.50;84.20;;;;;;5032849;28;20076;-72
2022/05/09 09:14:00;;;;;;;16.15;3.20;;;15.60;84.90;;;;;;5034531;28;20084;-71
2022/05/09 09:17:02;;;;;;;9.50;2.78;;;15.70;84.90;;;;;;5017395;28;20090;-77
2022/05/09 09:19:47;;;;;;;8.85;2.58;;;15.80;82.70;;;;;;5012450;28;20036;-74
2022/05/09 09:22:25;;;;;;;12.43;2.65;;;15.90;82.60;;;;;;5020454;28;20637;-75
2022/05/09 09:25:24;;;;;;;7.85;2.28;;;16.00;83.60;;;;;;5012511;28;20067;-74
2022/05/09 09:28:00;;;;;;;7.68;2.67;;;16.10;83.30;;;;;;5016296;28;20029;-74
2022/05/09 09:30:26;;;;;;;7.55;2.45;;;16.00;82.70;;;;;;5017611;28;20030;-74
2022/05/09 09:33:04;;;;;;;8.93;2.90;;;16.10;82.10;;;;;;5025754;28;20550;-76
2022/05/09 09:35:55;;;;;;;12.50;2.78;;;16.20;82.10;;;;;;5033122;28;20052;-76
2022/05/09 09:38:26;;;;;;;;;;;16.20;81.00;;;;;;5038621;28;20517;-76
2022/05/09 09:40:53;;;;;;;5.68;2.00;;;16.30;81.30;;;;;;5017984;28;19916;-76
2022/05/09 09:43:19;;;;;;;9.10;2.28;;;16.30;81.10;;;;;;5020062;28;20036;-76
2022/05/09 09:46:00;;;;;;;5.60;1.98;;;16.40;80.30;;;;;;5041233;28;20030;-72
2022/05/09 09:48:26;;;;;;;10.35;2.33;;;16.40;80.00;;;;;;5039663;28;20096;-76
2022/05/09 09:51:05;;;;;;;9.38;2.28;;;16.40;79.70;;;;;;5023375;28;20085;-75
2022/05/09 09:53:39;;;;;;;8.13;2.50;;;16.50;80.20;;;;;;5004860;28;20489;-71
2022/05/09 09:56:31;;;;;;;6.18;2.38;;;16.50;80.60;;;;;;5019331;28;20025;-72
2022/05/09 09:59:18;;;;;;;5.00;2.17;;;16.60;79.90;;;;;;5019021;28;20071;-77
2022/05/09 10:02:16;;;;;;;6.50;2.20;;;16.70;80.20;;;;;;5019837;28;20051;-75
2022/05/09 10:04:43;;;;;;;13.15;2.70;;;16.70;78.50;;;;;;5015202;28;20040;-70
2022/05/09 10:07:28;;;;;;;11.07;2.13;;;16.70;77.30;;;;;;5009857;28;20112;-71
2022/05/09 10:10:19;;;;;;;9.43;2.33;;;16.70;76.00;;;;;;5015727;28;20102;-76
2022/05/09 10:12:51;;;;;;;7.87;2.13;;;16.80;74.60;;;;;;5035532;28;20033;-75
2022/05/09 10:15:23;;;;;;;6.78;1.98;;;16.80;75.50;;;;;;5018605;28;20582;-75
2022/05/09 10:17:49;;;;;;;5.55;2.45;;;16.80;75.20;;;;;;5016017;28;20033;-73
2022/05/09 10:20:34;;;;;;;8.60;2.10;;;16.90;72.20;;;;;;5028946;28;20034;-75
2022/05/09 10:26:25;;;;;;;7.18;2.42;;;17.00;70.30;;;;;;5035630;28;20057;-72
2022/05/09 10:28:55;;;;;;;8.50;2.75;;;17.10;68.90;;;;;;5006461;28;20036;-72
2022/05/09 10:31:37;;;;;;;8.35;2.90;;;17.20;68.10;;;;;;5034866;28;20061;-75
2022/05/09 10:34:13;;;;;;;7.78;2.28;;;17.20;68.90;;;;;;5019842;28;20021;-75
2022/05/09 10:37:02;;;;;;;8.27;2.38;;;17.20;70.80;;;;;;4998470;28;20025;-75
2022/05/09 10:39:39;;;;;;;7.22;2.40;;;17.30;68.70;;;;;;4998704;28;20061;-75
2022/05/09 10:42:07;;;;;;;6.95;2.20;;;17.30;68.70;;;;;;4997499;28;20049;-71
2022/05/09 10:45:06;;;;;;;4.85;2.03;;;17.30;68.90;;;;;;5020178;28;20064;-71
2022/05/09 10:47:47;;;;;;;10.23;2.85;;;17.50;66.50;;;;;;5015861;28;20072;-72
2022/05/09 10:50:33;;;;;;;7.63;2.25;;;17.50;67.10;;;;;;5036203;28;20128;-75
2022/05/09 10:53:17;;;;;;;9.65;2.53;;;17.60;68.00;;;;;;5015375;28;20024;-76
2022/05/09 10:55:52;;;;;;;7.40;2.40;;;17.60;65.40;;;;;;5017426;28;20045;-74
2022/05/09 10:58:30;;;;;;;7.93;3.15;;;17.70;66.10;;;;;;5038068;28;20586;-76
2022/05/09 11:01:02;;;;;;;6.78;2.20;;;17.80;65.40;;;;;;4999246;28;20037;-75
2022/05/09 11:03:37;;;;;;;12.35;2.90;;;18.00;65.90;;;;;;5018726;28;20041;-76
2022/05/09 11:06:21;;;;;;;7.28;2.13;;;18.20;64.40;;;;;;5025040;28;20036;-76
2022/05/09 11:09:20;;;;;;;6.93;2.00;;;18.60;65.00;;;;;;5037310;28;20060;-76
2022/05/09 11:11:55;;;;;;;7.18;2.47;;;19.40;66.40;;;;;;5024531;28;20025;-75
2022/05/09 11:14:35;;;;;;;10.20;2.30;;;21.10;65.60;;;;;;5014956;28;20087;-74
2022/05/09 11:17:35;;;;;;;4.22;1.98;;;23.30;58.80;;;;;;5036161;28;20033;-75
2022/05/09 11:20:13;;;;;;;10.95;2.38;;;25.20;55.50;;;;;;5019156;28;20029;-75
2022/05/09 11:23:03;;;;;;;7.40;2.63;;;27.00;50.00;;;;;;5020303;28;20017;-76
2022/05/09 11:25:48;;;;;;;7.30;2.58;;;28.70;48.10;;;;;;5016896;28;20043;-78
2022/05/09 11:28:42;;;;;;;8.43;2.60;;;30.50;43.70;;;;;;5018423;28;20041;-74
2022/05/09 11:31:14;;;;;;;3.70;1.92;;;32.00;40.50;;;;;;5034013;28;20039;-74
2022/05/09 11:34:10;;;;;;;6.13;2.17;;;32.80;37.70;;;;;;5016632;28;20053;-74
2022/05/09 11:36:45;;;;;;;12.35;2.22;;;33.40;35.80;;;;;;5028532;28;20032;-75
2022/05/09 11:39:41;;;;;;;5.88;2.40;;;33.80;35.20;;;;;;5033477;28;20079;-73
2022/05/09 11:45:18;;;;;;;5.18;2.17;;;34.30;34.10;;;;;;5032789;28;20528;-73
2022/05/09 11:48:15;;;;;;;6.65;2.72;;;33.90;34.80;;;;;;5034837;28;20031;-73
2022/05/09 11:51:18;;;;;;;5.18;2.40;;;33.40;32.90;;;;;;5036483;28;20055;-73
2022/05/09 11:53:50;;;;;;;4.40;2.38;;;32.50;34.50;;;;;;5034890;28;20447;-74
2022/05/09 11:56:17;;;;;;;6.78;2.88;;;31.60;34.90;;;;;;5037736;28;20401;-74
2022/05/09 11:58:44;;;;;;;3.83;2.10;;;31.00;35.80;;;;;;5029531;28;20025;-77
2022/05/09 12:01:11;;;;;;;7.60;2.63;;;30.50;34.80;;;;;;5018185;28;20033;-78
2022/05/09 12:03:40;;;;;;;5.70;2.40;;;30.20;34.70;;;;;;5001771;28;20018;-77
2022/05/09 12:06:28;;;;;;;4.05;1.98;;;30.20;36.00;;;;;;5015903;28;20420;-76
2022/05/09 12:08:56;;;;;;;6.10;2.10;;;30.20;35.40;;;;;;5035507;28;20047;-77
2022/05/09 12:11:43;;;;;;;6.70;2.33;;;30.70;34.80;;;;;;5017752;28;20575;-76
2022/05/09 12:14:08;;;;;;;5.57;2.25;;;31.00;35.80;;;;;;5015688;28;20029;-75
2022/05/09 12:16:37;;;;;;;7.03;2.85;;;31.50;35.10;;;;;;5019591;28;20382;-77
2022/05/09 12:19:05;;;;;;;5.57;2.10;;;31.60;33.60;;;;;;5000862;28;20033;-73
2022/05/09 12:21:37;;;;;;;7.13;2.47;;;31.60;34.50;;;;;;5035239;28;20088;-72
2022/05/09 12:24:10;;;;;;;5.30;2.58;;;31.60;34.30;;;;;;5036306;28;20493;-76
2022/05/09 12:26:38;;;;;;;5.30;2.10;;;31.50;34.00;;;;;;5038161;28;20090;-77
2022/05/09 12:29:11;;;;;;;4.93;2.28;;;31.50;33.90;;;;;;5003505;28;20120;-77
2022/05/09 12:31:57;;;;;;;4.05;2.20;;;31.70;33.00;;;;;;5031152;28;20029;-76
2022/05/09 12:34:40;;;;;;;6.82;2.35;;;31.90;33.00;;;;;;5030572;28;20037;-76
2022/05/09 12:37:06;;;;;;;6.90;2.20;;;32.00;32.50;;;;;;5034149;28;20045;-76
2022/05/09 12:39:47;;;;;;;7.05;2.40;;;32.50;32.90;;;;;;5035610;28;20041;-76
2022/05/09 12:42:47;;;;;;;6.22;2.30;;;32.60;31.70;;;;;;5034348;28;20044;-76
2022/05/09 12:45:14;;;;;;;5.05;2.30;;;33.00;32.30;;;;;;5004093;28;20037;-76
2022/05/09 12:47:42;;;;;;;8.52;2.30;;;33.60;32.60;;;;;;5016933;28;20167;-76
2022/05/09 12:50:13;;;;;;;8.27;2.53;;;33.80;31.50;;;;;;5013490;28;20059;-77
2022/05/09 12:53:06;;;;;;;6.00;2.30;;;33.80;29.60;;;;;;5001149;28;20117;-76
2022/05/09 12:55:55;;;;;;;3.50;2.00;;;34.30;31.20;;;;;;5035288;28;20032;-77
2022/05/09 12:58:23;;;;;;;7.18;2.28;;;34.70;31.60;;;;;;5032941;28;20033;-77
2022/05/09 13:00:54;;;;;;;4.45;2.20;;;35.30;30.50;;;;;;5036488;28;20456;-73
2022/05/09 13:03:19;;;;;;;5.30;2.38;;;35.40;30.20;;;;;;5039105;28;20099;-75
2022/05/09 13:05:45;;;;;;;5.97;2.70;;;35.30;30.70;;;;;;5007829;28;20060;-75
2022/05/09 13:08:16;;;;;;;7.20;2.78;;;35.50;30.00;;;;;;5035894;28;20128;-76
2022/05/09 13:10:52;;;;;;;8.35;2.22;;;35.30;29.50;;;;;;5014827;28;20025;-76
2022/05/09 13:13:23;;;;;;;6.60;2.30;;;35.70;29.60;;;;;;5019874;28;20562;-75
2022/05/09 13:15:49;;;;;;;5.57;2.28;;;36.10;29.50;;;;;;5019988;28;20344;-76
2022/05/09 13:18:22;;;;;;;5.28;2.70;;;36.30;29.90;;;;;;5020773;28;20120;-72
2022/05/09 13:20:50;;;;;;;5.40;2.40;;;36.20;29.20;;;;;;5020414;28;20436;-72